Time;durP1;ratioP1;P1;durP2;ratioP2;P2;SDS_P1;SDS_P2;PMS_P1;PMS_P2;Temp;Humidity;BMP_temperature;BMP_pressure;BME280_temperature;BME280_humidity;BME280_pressure;Samples;Min_cycle;Max_cycle;Signal;HPM_P1;HPM_P2
2022/02/14 00:00:37;;;;;;;8.77;8.07;;;6.10;99.90;;;;;;5027376;28;20618;-74
2022/02/14 00:03:06;;;;;;;8.63;7.93;;;6.10;99.90;;;;;;5028282;28;20254;-73
2022/02/14 00:05:33;;;;;;;9.17;8.37;;;6.10;99.90;;;;;;5020296;28;20730;-74
2022/02/14 00:08:00;;;;;;;9.27;8.40;;;6.10;99.90;;;;;;5019390;28;20216;-74
2022/02/14 00:10:27;;;;;;;8.90;8.20;;;6.00;99.90;;;;;;5019080;28;20637;-74
2022/02/14 00:12:54;;;;;;;8.70;8.00;;;6.00;99.90;;;;;;5026396;28;20219;-74
2022/02/14 00:15:21;;;;;;;8.53;7.83;;;6.00;99.90;;;;;;5026326;28;20198;-74
2022/02/14 00:17:50;;;;;;;8.97;8.20;;;5.90;99.90;;;;;;5026336;28;20610;-74
2022/02/14 00:20:18;;;;;;;8.70;8.00;;;5.80;99.90;;;;;;5031022;28;20247;-74
2022/02/14 00:22:44;;;;;;;8.97;8.10;;;5.80;99.90;;;;;;5023424;28;20216;-74
2022/02/14 00:25:13;;;;;;;8.70;8.00;;;5.70;99.90;;;;;;5021579;28;20570;-74
2022/02/14 00:27:40;;;;;;;8.80;8.00;;;5.70;99.90;;;;;;5020747;28;20221;-74
2022/02/14 00:30:08;;;;;;;9.17;8.23;;;5.60;99.90;;;;;;5019235;28;20682;-74
2022/02/14 00:32:35;;;;;;;8.70;8.00;;;5.60;99.90;;;;;;5026045;28;20197;-74
2022/02/14 00:35:04;;;;;;;9.40;8.67;;;5.60;99.90;;;;;;5026741;28;20581;-74
2022/02/14 00:37:31;;;;;;;8.87;8.17;;;5.50;99.90;;;;;;5016631;28;20271;-74
2022/02/14 00:39:59;;;;;;;9.10;8.40;;;5.50;99.90;;;;;;5017954;28;20211;-74
2022/02/14 00:42:25;;;;;;;8.83;8.07;;;5.50;99.90;;;;;;5025054;28;20282;-74
2022/02/14 00:44:52;;;;;;;8.57;7.97;;;5.60;99.90;;;;;;5024537;28;20208;-74
2022/02/14 00:47:19;;;;;;;8.80;8.10;;;5.60;99.90;;;;;;5022318;28;20275;-74
2022/02/14 00:49:46;;;;;;;8.67;8.00;;;5.60;99.90;;;;;;5026681;28;20257;-74
2022/02/14 00:52:14;;;;;;;8.93;8.20;;;5.60;99.90;;;;;;5029263;28;20673;-74
2022/02/14 00:54:42;;;;;;;8.60;7.90;;;5.60;99.90;;;;;;5020606;28;20738;-74
2022/02/14 00:57:09;;;;;;;8.60;8.00;;;5.60;99.90;;;;;;5020642;28;20588;-74
2022/02/14 00:59:36;;;;;;;9.43;8.47;;;5.60;99.90;;;;;;5023712;28;20204;-74
2022/02/14 01:02:04;;;;;;;9.10;8.40;;;5.60;99.90;;;;;;5024201;28;20257;-74
2022/02/14 01:04:30;;;;;;;9.37;8.50;;;5.60;99.90;;;;;;5031956;28;20193;-74
2022/02/14 01:06:57;;;;;;;8.97;8.27;;;5.50;99.90;;;;;;5023181;28;20247;-74
2022/02/14 01:09:26;;;;;;;9.07;8.27;;;5.50;99.90;;;;;;5022873;28;20250;-74
2022/02/14 01:11:53;;;;;;;9.97;9.23;;;5.40;99.90;;;;;;5021072;28;20196;-74
2022/02/14 01:14:19;;;;;;;9.27;8.60;;;5.40;99.90;;;;;;5018022;28;20288;-74
2022/02/14 01:16:46;;;;;;;8.70;8.10;;;5.30;99.90;;;;;;5021388;28;20284;-74
2022/02/14 01:19:13;;;;;;;8.87;8.07;;;5.30;99.90;;;;;;5027993;28;20673;-74
2022/02/14 01:21:41;;;;;;;8.50;7.90;;;5.30;99.90;;;;;;5023822;28;20199;-74
2022/02/14 01:24:08;;;;;;;8.73;7.93;;;5.20;99.90;;;;;;5025894;28;20224;-74
2022/02/14 01:26:36;;;;;;;9.33;8.63;;;5.20;99.90;;;;;;5021299;28;20269;-74
2022/02/14 01:29:03;;;;;;;10.00;9.20;;;5.20;99.90;;;;;;5020554;28;20204;-74
2022/02/14 01:31:30;;;;;;;9.23;8.63;;;5.20;99.90;;;;;;5020020;28;20188;-74
2022/02/14 01:33:57;;;;;;;8.80;8.20;;;5.20;99.90;;;;;;5020918;28;20204;-74
2022/02/14 01:36:24;;;;;;;8.83;8.23;;;5.20;99.90;;;;;;5024616;28;20227;-74
2022/02/14 01:38:51;;;;;;;8.60;7.90;;;5.20;99.90;;;;;;5027770;28;20231;-74
2022/02/14 01:41:18;;;;;;;8.87;8.17;;;5.20;99.90;;;;;;5018875;28;20805;-74
2022/02/14 01:43:46;;;;;;;8.73;8.03;;;5.20;99.90;;;;;;5016747;28;20729;-74
2022/02/14 01:46:13;;;;;;;8.57;7.87;;;5.20;99.90;;;;;;5021552;28;20201;-74
2022/02/14 01:48:40;;;;;;;8.80;8.10;;;5.20;99.90;;;;;;5028063;28;20806;-74
2022/02/14 01:51:07;;;;;;;8.23;7.63;;;5.10;99.90;;;;;;5026293;28;20195;-74
2022/02/14 01:53:34;;;;;;;8.90;8.10;;;5.10;99.90;;;;;;5021306;28;20200;-75
2022/02/14 01:56:01;;;;;;;8.83;8.13;;;5.10;99.90;;;;;;5020695;28;20250;-74
2022/02/14 01:58:28;;;;;;;8.70;8.00;;;5.10;99.90;;;;;;5019753;28;20199;-74
2022/02/14 02:00:58;;;;;;;8.40;7.80;;;5.10;99.90;;;;;;5018413;28;20725;-76
2022/02/14 02:03:25;;;;;;;8.47;7.87;;;5.00;99.90;;;;;;5024440;28;20257;-75
2022/02/14 02:05:52;;;;;;;8.67;7.97;;;5.00;99.90;;;;;;5022195;28;20612;-74
2022/02/14 02:08:19;;;;;;;8.60;8.00;;;5.00;99.90;;;;;;5015567;28;20775;-74
2022/02/14 02:10:46;;;;;;;8.87;8.17;;;5.00;99.90;;;;;;5024653;28;20200;-74
2022/02/14 02:13:15;;;;;;;9.50;8.80;;;5.00;99.90;;;;;;5022638;28;20219;-74
2022/02/14 02:15:42;;;;;;;9.53;8.83;;;4.90;99.90;;;;;;5020265;28;20188;-74
2022/02/14 02:18:10;;;;;;;9.40;8.70;;;4.90;99.90;;;;;;5017533;28;20284;-74
2022/02/14 02:20:37;;;;;;;9.67;8.97;;;4.90;99.90;;;;;;5024279;28;20201;-74
2022/02/14 02:23:04;;;;;;;9.77;8.97;;;4.80;99.90;;;;;;5025253;28;20708;-74
2022/02/14 02:25:32;;;;;;;10.77;9.77;;;4.70;99.90;;;;;;5016812;28;20196;-74
2022/02/14 02:27:59;;;;;;;10.63;9.73;;;4.40;99.90;;;;;;5024222;28;20277;-74
2022/02/14 02:30:26;;;;;;;12.20;10.30;;;4.20;99.90;;;;;;5022511;28;20226;-73
2022/02/14 02:32:53;;;;;;;11.43;10.53;;;4.00;99.90;;;;;;5022016;28;20203;-73
2022/02/14 02:35:21;;;;;;;11.10;10.10;;;3.80;99.90;;;;;;5020965;28;20746;-74
2022/02/14 02:37:48;;;;;;;11.27;10.37;;;3.80;99.90;;;;;;5019144;28;20227;-74
2022/02/14 02:40:15;;;;;;;10.80;9.90;;;3.80;99.90;;;;;;5017437;28;20291;-74
2022/02/14 02:42:43;;;;;;;11.03;10.13;;;3.80;99.90;;;;;;5022406;28;20217;-74
2022/02/14 02:45:10;;;;;;;10.80;9.90;;;3.70;99.90;;;;;;5025722;28;20215;-74
2022/02/14 02:47:37;;;;;;;10.97;9.90;;;3.60;99.90;;;;;;5016695;28;20215;-74
2022/02/14 02:50:05;;;;;;;11.53;10.53;;;3.60;99.90;;;;;;5023761;28;20235;-75
2022/02/14 02:52:32;;;;;;;10.87;10.07;;;3.60;99.90;;;;;;5023135;28;20250;-74
2022/02/14 02:54:59;;;;;;;10.90;10.00;;;3.60;99.90;;;;;;5020266;28;20212;-74
2022/02/14 02:57:26;;;;;;;11.20;10.27;;;3.40;99.90;;;;;;5020447;28;20295;-74
2022/02/14 02:59:54;;;;;;;10.93;10.03;;;3.40;99.90;;;;;;5022592;28;20205;-74
2022/02/14 03:02:22;;;;;;;11.07;10.17;;;3.40;99.90;;;;;;5028716;28;20279;-74
2022/02/14 03:04:49;;;;;;;10.20;9.40;;;3.40;99.90;;;;;;5019735;28;20226;-74
2022/02/14 03:07:16;;;;;;;10.00;9.20;;;3.50;99.90;;;;;;5016141;28;20220;-74
2022/02/14 03:09:43;;;;;;;9.70;8.93;;;3.50;99.90;;;;;;5015977;28;20196;-74
2022/02/14 03:12:11;;;;;;;10.60;9.80;;;3.60;99.90;;;;;;5013776;28;20216;-74
2022/02/14 03:14:41;;;;;;;10.13;9.33;;;3.60;99.90;;;;;;5022652;28;20188;-74
2022/02/14 03:17:11;;;;;;;9.90;9.20;;;3.70;99.90;;;;;;5020488;28;20233;-74
2022/02/14 03:19:38;;;;;;;10.00;9.23;;;3.80;99.90;;;;;;5025871;28;20269;-74
2022/02/14 03:22:06;;;;;;;9.87;9.03;;;3.80;99.90;;;;;;5022080;28;20250;-74
2022/02/14 03:24:32;;;;;;;10.60;9.80;;;3.90;99.90;;;;;;5031018;28;20218;-74
2022/02/14 03:26:59;;;;;;;10.40;9.60;;;3.90;99.90;;;;;;5031167;28;20770;-74
2022/02/14 03:29:26;;;;;;;9.97;9.27;;;4.00;99.90;;;;;;5034633;28;20814;-74
2022/02/14 03:31:53;;;;;;;10.67;9.77;;;4.00;99.90;;;;;;5031538;28;20207;-76
2022/02/14 03:34:22;;;;;;;9.97;9.20;;;4.10;99.90;;;;;;5034948;28;20200;-73
2022/02/14 03:36:49;;;;;;;10.50;9.50;;;4.20;99.90;;;;;;5023196;28;20260;-74
2022/02/14 03:39:16;;;;;;;9.80;9.10;;;4.20;99.90;;;;;;5027876;28;20199;-77
2022/02/14 03:41:43;;;;;;;9.93;9.00;;;4.30;99.90;;;;;;5002627;28;20208;-74
2022/02/14 03:44:10;;;;;;;9.70;8.93;;;4.40;99.90;;;;;;5012563;28;20221;-75
2022/02/14 03:46:37;;;;;;;9.60;8.80;;;4.50;99.90;;;;;;5021886;28;20216;-76
2022/02/14 03:49:05;;;;;;;10.07;9.30;;;4.50;99.90;;;;;;5025596;28;20642;-77
2022/02/14 03:51:33;;;;;;;9.80;9.10;;;4.60;99.90;;;;;;5019669;28;20196;-75
2022/02/14 03:54:00;;;;;;;9.53;8.53;;;4.70;99.90;;;;;;5006374;28;20202;-75
2022/02/14 03:56:27;;;;;;;9.23;8.53;;;4.80;99.90;;;;;;5011604;28;20220;-75
2022/02/14 03:58:54;;;;;;;9.60;8.73;;;4.90;99.90;;;;;;5005215;28;20204;-75
2022/02/14 04:01:21;;;;;;;9.40;8.80;;;5.00;99.90;;;;;;5013151;28;20755;-76
2022/02/14 04:03:48;;;;;;;9.67;8.97;;;5.00;99.90;;;;;;5013123;28;20708;-75
2022/02/14 04:06:15;;;;;;;9.47;8.80;;;5.10;99.90;;;;;;5021334;28;20261;-75
2022/02/14 04:08:43;;;;;;;9.40;8.70;;;5.10;99.90;;;;;;5020766;28;20192;-75
2022/02/14 04:11:10;;;;;;;9.63;8.93;;;5.20;99.90;;;;;;5001836;28;20228;-75
2022/02/14 04:13:37;;;;;;;10.07;9.27;;;5.20;99.90;;;;;;5012623;28;20189;-75
2022/02/14 04:16:04;;;;;;;9.53;8.73;;;5.20;99.90;;;;;;5003251;28;20200;-79
2022/02/14 04:18:31;;;;;;;9.37;8.57;;;5.30;99.90;;;;;;5044630;23;20712;-80
2022/02/14 04:20:58;;;;;;;9.57;8.97;;;5.40;99.90;;;;;;5034662;28;20196;-79
2022/02/14 04:23:25;;;;;;;9.47;8.77;;;5.40;99.90;;;;;;5044077;28;20707;-78
2022/02/14 04:25:53;;;;;;;9.40;8.63;;;5.40;99.90;;;;;;5044533;28;20223;-78
2022/02/14 04:28:20;;;;;;;9.23;8.53;;;5.50;99.90;;;;;;5039356;28;20247;-76
2022/02/14 04:30:47;;;;;;;8.23;7.43;;;5.50;99.90;;;;;;5055995;28;20219;-79
2022/02/14 04:33:14;;;;;;;8.17;7.57;;;5.50;99.90;;;;;;5041022;28;20202;-78
2022/02/14 04:35:41;;;;;;;7.93;7.40;;;5.40;99.90;;;;;;5041689;28;20218;-78
2022/02/14 04:38:07;;;;;;;8.80;8.10;;;5.40;99.90;;;;;;5031025;28;20212;-78
2022/02/14 04:40:37;;;;;;;8.43;7.80;;;5.30;99.90;;;;;;5032430;28;20254;-77
2022/02/14 04:43:06;;;;;;;8.27;7.67;;;5.30;99.90;;;;;;5032370;28;20225;-78
2022/02/14 04:45:33;;;;;;;9.40;8.30;;;5.30;99.90;;;;;;5032242;28;20200;-78
2022/02/14 04:48:00;;;;;;;8.00;7.50;;;5.30;99.90;;;;;;5039004;28;20226;-77
2022/02/14 04:50:27;;;;;;;8.10;7.50;;;5.30;99.90;;;;;;5041307;28;20196;-77
2022/02/14 04:52:54;;;;;;;8.50;7.90;;;5.30;99.90;;;;;;5039031;28;20200;-77
2022/02/14 04:55:21;;;;;;;8.57;7.87;;;5.30;99.90;;;;;;5038459;28;20223;-77
2022/02/14 04:57:48;;;;;;;8.43;7.80;;;5.20;99.90;;;;;;5041166;28;20220;-76
2022/02/14 05:00:17;;;;;;;8.40;7.80;;;5.20;99.90;;;;;;5040693;28;20196;-77
2022/02/14 05:02:45;;;;;;;8.47;7.77;;;5.20;99.90;;;;;;5037194;28;20220;-77
2022/02/14 05:05:12;;;;;;;7.93;7.33;;;5.10;99.90;;;;;;5033448;28;20307;-77
2022/02/14 05:07:39;;;;;;;8.10;7.50;;;5.10;99.90;;;;;;5041430;28;20248;-78
2022/02/14 05:10:07;;;;;;;8.03;7.53;;;5.10;99.90;;;;;;5054722;28;20200;-77
2022/02/14 05:12:34;;;;;;;8.83;8.20;;;5.00;99.90;;;;;;5039653;28;20226;-78
2022/02/14 05:15:00;;;;;;;8.73;8.03;;;5.00;99.90;;;;;;5047637;28;20262;-78
2022/02/14 05:17:29;;;;;;;9.13;8.40;;;4.90;99.90;;;;;;5031721;28;20227;-77
2022/02/14 05:19:55;;;;;;;9.70;9.00;;;4.90;99.90;;;;;;5036706;28;20238;-78
2022/02/14 05:22:22;;;;;;;9.50;8.80;;;4.80;99.90;;;;;;5042788;28;21148;-78
2022/02/14 05:24:49;;;;;;;9.20;8.57;;;4.80;99.90;;;;;;5034637;28;20215;-78
2022/02/14 05:27:16;;;;;;;8.90;8.20;;;4.80;99.90;;;;;;5036480;28;20216;-79
2022/02/14 05:29:43;;;;;;;9.30;8.40;;;4.70;99.90;;;;;;5032055;28;20622;-79
2022/02/14 05:32:10;;;;;;;9.50;8.70;;;4.80;99.90;;;;;;5032488;28;20207;-77
2022/02/14 05:34:38;;;;;;;10.87;9.80;;;4.70;99.90;;;;;;5035147;28;20566;-78
2022/02/14 05:37:06;;;;;;;11.00;9.90;;;4.40;99.90;;;;;;5057314;28;20223;-77
2022/02/14 05:39:33;;;;;;;11.70;10.57;;;4.10;99.90;;;;;;5044223;28;20810;-79
2022/02/14 05:41:59;;;;;;;10.97;9.97;;;3.70;99.90;;;;;;5043121;28;20199;-79
2022/02/14 05:44:26;;;;;;;11.80;10.77;;;3.60;99.90;;;;;;5025583;28;20208;-76
2022/02/14 05:46:53;;;;;;;11.27;10.20;;;3.40;99.90;;;;;;5030905;28;20269;-76
2022/02/14 05:49:20;;;;;;;11.57;10.47;;;3.30;99.90;;;;;;5038973;28;20207;-78
2022/02/14 05:51:48;;;;;;;11.03;9.90;;;3.20;99.90;;;;;;5035033;28;20283;-78
2022/02/14 05:54:15;;;;;;;10.87;9.93;;;3.20;99.90;;;;;;5032042;28;20234;-76
2022/02/14 05:56:42;;;;;;;11.03;10.00;;;3.20;99.90;;;;;;5036156;28;20225;-77
2022/02/14 05:59:09;;;;;;;10.40;9.60;;;3.10;99.90;;;;;;5035391;28;20200;-77
2022/02/14 06:01:35;;;;;;;10.57;9.57;;;3.10;99.90;;;;;;5036478;28;20215;-77
2022/02/14 06:04:02;;;;;;;9.80;9.10;;;3.10;99.90;;;;;;5034209;28;20265;-77
2022/02/14 06:06:29;;;;;;;10.13;9.33;;;3.10;99.90;;;;;;5032974;28;20198;-77
2022/02/14 06:08:58;;;;;;;10.20;9.20;;;3.20;99.90;;;;;;5033899;28;20650;-77
2022/02/14 06:11:24;;;;;;;9.40;8.70;;;3.10;99.90;;;;;;5033635;28;20206;-77
2022/02/14 06:13:51;;;;;;;9.80;8.93;;;3.20;99.90;;;;;;5032518;28;20204;-76
2022/02/14 06:16:18;;;;;;;10.43;9.40;;;3.20;99.90;;;;;;5035165;28;20253;-77
2022/02/14 06:18:45;;;;;;;9.27;8.47;;;3.20;99.90;;;;;;5032279;28;20232;-76
2022/02/14 06:21:12;;;;;;;8.90;8.20;;;3.30;99.90;;;;;;5033786;28;20258;-76
2022/02/14 06:23:39;;;;;;;9.63;8.93;;;3.30;99.90;;;;;;5032285;28;20200;-76
2022/02/14 06:26:07;;;;;;;10.23;9.43;;;3.30;99.90;;;;;;5032739;28;20259;-76
2022/02/14 06:28:38;;;;;;;9.47;8.70;;;3.30;99.90;;;;;;5032413;28;20219;-76
2022/02/14 06:31:06;;;;;;;8.90;8.20;;;3.30;99.90;;;;;;5030651;28;20204;-78
2022/02/14 06:33:33;;;;;;;8.93;8.30;;;3.30;99.90;;;;;;5031789;28;20220;-77
2022/02/14 06:36:00;;;;;;;9.30;8.60;;;3.40;99.90;;;;;;5044365;28;20203;-77
2022/02/14 06:38:27;;;;;;;9.70;8.97;;;3.40;99.90;;;;;;5031663;28;20264;-78
2022/02/14 06:40:54;;;;;;;9.37;8.50;;;3.50;99.90;;;;;;5038006;28;20199;-77
2022/02/14 06:43:22;;;;;;;8.90;8.20;;;3.60;99.90;;;;;;5043724;28;20435;-77
2022/02/14 06:45:50;;;;;;;9.93;8.93;;;3.70;99.90;;;;;;5046270;28;20798;-78
2022/02/14 06:48:17;;;;;;;9.03;8.30;;;3.80;99.90;;;;;;5042905;28;20222;-77
2022/02/14 06:50:44;;;;;;;9.17;8.43;;;3.90;99.90;;;;;;5044439;28;20741;-77
2022/02/14 06:53:11;;;;;;;9.33;8.67;;;3.90;99.90;;;;;;5041899;28;20278;-78
2022/02/14 06:55:38;;;;;;;9.33;8.63;;;4.00;99.90;;;;;;5042658;28;20191;-77
2022/02/14 06:58:05;;;;;;;9.70;8.80;;;4.00;99.90;;;;;;5036403;28;20705;-75
2022/02/14 07:00:33;;;;;;;8.90;8.20;;;4.10;99.90;;;;;;5043428;28;20219;-76
2022/02/14 07:03:00;;;;;;;8.60;8.00;;;4.20;99.90;;;;;;5047102;28;20200;-76
2022/02/14 07:05:27;;;;;;;8.93;8.13;;;4.20;99.90;;;;;;5034600;28;20235;-76
2022/02/14 07:07:54;;;;;;;8.40;7.80;;;4.30;99.90;;;;;;5034723;28;20257;-76
2022/02/14 07:10:21;;;;;;;9.03;8.30;;;4.40;99.90;;;;;;5037780;28;20200;-77
2022/02/14 07:12:48;;;;;;;9.37;8.57;;;4.50;99.90;;;;;;5030788;28;20210;-77
2022/02/14 07:15:15;;;;;;;9.37;8.50;;;4.50;99.90;;;;;;5038288;28;20617;-77
2022/02/14 07:17:48;;;;;;;8.90;8.20;;;4.60;99.90;;;;;;5042151;28;20266;-78
2022/02/14 07:20:15;;;;;;;9.20;8.40;;;4.70;99.90;;;;;;5041329;28;20191;-77
2022/02/14 07:22:42;;;;;;;8.93;8.10;;;4.90;99.90;;;;;;5033811;28;20199;-77
2022/02/14 07:25:10;;;;;;;8.73;8.10;;;5.00;99.90;;;;;;5034258;28;20774;-76
2022/02/14 07:27:38;;;;;;;9.60;8.70;;;5.00;99.90;;;;;;5034908;28;20232;-77
2022/02/14 07:30:08;;;;;;;9.47;8.60;;;5.10;99.90;;;;;;5033206;28;20673;-77
2022/02/14 07:32:36;;;;;;;9.10;8.33;;;5.30;99.90;;;;;;5036158;28;20212;-77
2022/02/14 07:35:06;;;;;;;9.17;8.37;;;5.40;99.90;;;;;;5036347;28;20192;-77
2022/02/14 07:37:33;;;;;;;9.20;8.50;;;5.40;99.90;;;;;;5032437;28;20701;-75
2022/02/14 07:40:01;;;;;;;9.43;8.60;;;5.50;99.90;;;;;;5035758;28;20275;-77
2022/02/14 07:42:28;;;;;;;9.17;8.27;;;5.70;99.90;;;;;;5037245;28;20214;-78
2022/02/14 07:44:56;;;;;;;8.60;7.90;;;5.90;99.90;;;;;;5034136;28;20259;-77
2022/02/14 07:47:24;;;;;;;7.93;7.27;;;6.20;99.90;;;;;;5037322;28;20277;-76
2022/02/14 07:49:52;;;;;;;8.47;7.83;;;6.50;99.90;;;;;;5037605;28;20245;-77
2022/02/14 07:52:20;;;;;;;8.00;7.40;;;6.90;99.90;;;;;;5037658;28;20202;-76
2022/02/14 07:54:47;;;;;;;8.43;7.73;;;7.30;99.90;;;;;;5040673;28;20205;-75
2022/02/14 07:57:14;;;;;;;9.40;8.60;;;7.60;99.90;;;;;;5035727;28;20213;-81
2022/02/14 07:59:41;;;;;;;4.90;3.10;;;7.90;99.90;;;;;;5033490;28;20217;-78
2022/02/14 08:02:08;;;;;;;6.53;5.70;;;8.20;99.90;;;;;;5032988;28;20630;-83
2022/02/14 08:04:35;;;;;;;7.60;5.57;;;8.60;99.90;;;;;;5037274;28;20215;-78
2022/02/14 08:07:04;;;;;;;6.13;4.30;;;9.00;99.90;;;;;;5046035;28;20223;-79
2022/02/14 08:09:33;;;;;;;8.97;5.90;;;9.20;99.90;;;;;;5038034;28;20187;-79
2022/02/14 08:12:00;;;;;;;7.03;4.50;;;9.20;99.90;;;;;;5045228;28;20294;-79
2022/02/14 08:14:26;;;;;;;9.43;6.90;;;9.30;99.90;;;;;;5041331;28;20246;-78
2022/02/14 08:16:53;;;;;;;9.43;5.13;;;9.40;99.90;;;;;;5040119;28;20227;-79
2022/02/14 08:19:20;;;;;;;10.53;6.03;;;9.60;99.90;;;;;;5043500;28;20191;-79
2022/02/14 08:21:47;;;;;;;12.87;7.63;;;10.00;99.90;;;;;;5039238;28;20628;-79
2022/02/14 08:24:14;;;;;;;15.23;8.23;;;10.50;99.90;;;;;;5044418;28;20203;-80
2022/02/14 08:26:42;;;;;;;11.40;6.60;;;10.90;99.90;;;;;;5039065;28;20191;-79
2022/02/14 08:29:11;;;;;;;8.80;6.10;;;11.10;99.90;;;;;;5043967;28;20560;-79
2022/02/14 08:31:39;;;;;;;11.17;6.50;;;11.40;99.90;;;;;;5041961;28;20241;-77
2022/02/14 08:34:05;;;;;;;7.13;5.00;;;11.80;99.90;;;;;;5046477;28;20949;-77
2022/02/14 08:36:32;;;;;;;9.07;7.83;;;12.00;99.90;;;;;;5040084;28;20633;-76
2022/02/14 08:39:01;;;;;;;9.07;8.27;;;12.10;99.90;;;;;;5044276;28;20754;-75
2022/02/14 08:41:28;;;;;;;10.00;9.17;;;12.00;99.90;;;;;;5038287;28;20199;-77
2022/02/14 08:43:56;;;;;;;8.07;6.70;;;11.90;99.90;;;;;;5052418;28;20222;-75
2022/02/14 08:46:25;;;;;;;9.33;8.53;;;11.90;99.90;;;;;;5038932;28;20240;-75
2022/02/14 08:48:54;;;;;;;10.33;9.43;;;11.80;99.90;;;;;;5053525;28;20713;-77
2022/02/14 08:51:21;;;;;;;8.07;5.60;;;11.70;99.90;;;;;;5040558;28;20206;-76
2022/02/14 08:53:49;;;;;;;10.77;9.70;;;11.80;99.90;;;;;;5054495;28;20210;-75
2022/02/14 08:56:16;;;;;;;6.90;5.00;;;12.00;99.90;;;;;;5040580;28;20223;-76
2022/02/14 08:58:45;;;;;;;10.50;9.60;;;12.20;99.90;;;;;;5037714;28;20247;-77
2022/02/14 09:01:15;;;;;;;10.40;9.60;;;12.10;99.90;;;;;;5058667;28;20240;-76
2022/02/14 09:03:43;;;;;;;10.33;9.43;;;12.10;99.90;;;;;;5038742;28;20203;-75
2022/02/14 09:06:10;;;;;;;10.73;9.73;;;11.90;99.90;;;;;;5036558;28;20281;-77
2022/02/14 09:08:37;;;;;;;10.70;9.60;;;11.90;99.90;;;;;;5036201;28;20255;-76
2022/02/14 09:11:05;;;;;;;9.97;9.13;;;11.70;99.90;;;;;;5043058;28;20213;-77
2022/02/14 09:13:33;;;;;;;10.33;9.47;;;11.50;99.90;;;;;;5039935;28;20195;-75
2022/02/14 09:16:03;;;;;;;10.00;9.10;;;11.20;99.90;;;;;;5037628;28;20203;-77
2022/02/14 09:18:31;;;;;;;10.43;9.53;;;11.00;99.90;;;;;;5053535;28;20292;-76
2022/02/14 09:20:59;;;;;;;10.50;9.53;;;11.40;99.90;;;;;;5044480;28;20194;-75
2022/02/14 09:23:26;;;;;;;10.20;9.30;;;11.50;99.90;;;;;;5039314;28;20696;-76
2022/02/14 09:25:53;;;;;;;10.00;9.00;;;11.80;99.90;;;;;;5039101;28;20212;-76
2022/02/14 09:28:20;;;;;;;9.67;8.83;;;12.00;99.90;;;;;;5055429;28;20222;-76
2022/02/14 09:30:47;;;;;;;9.93;9.03;;;11.90;99.90;;;;;;5031408;28;20254;-77
2022/02/14 09:33:13;;;;;;;10.17;9.30;;;12.00;99.90;;;;;;5039050;28;20191;-75
2022/02/14 09:35:42;;;;;;;9.67;8.87;;;12.30;99.90;;;;;;5037692;28;20687;-76
2022/02/14 09:38:10;;;;;;;10.70;9.80;;;12.10;99.90;;;;;;5041859;28;20285;-77
2022/02/14 09:40:37;;;;;;;10.13;9.33;;;12.00;99.90;;;;;;5038495;28;20198;-77
2022/02/14 09:43:05;;;;;;;10.53;9.47;;;11.80;99.90;;;;;;5036208;28;20199;-77
2022/02/14 09:45:32;;;;;;;10.40;9.50;;;11.60;99.90;;;;;;5035615;28;20223;-77
2022/02/14 09:48:01;;;;;;;10.27;9.27;;;11.70;99.90;;;;;;5043069;28;20226;-76
2022/02/14 09:50:28;;;;;;;10.33;9.37;;;11.60;99.90;;;;;;5035854;28;20208;-78
2022/02/14 09:52:57;;;;;;;10.40;9.10;;;11.50;99.90;;;;;;5034697;28;20196;-77
2022/02/14 09:55:25;;;;;;;9.77;9.00;;;11.40;99.90;;;;;;5043023;28;20202;-75
2022/02/14 09:57:52;;;;;;;10.27;9.27;;;11.20;99.90;;;;;;5037242;28;20221;-76
2022/02/14 10:00:19;;;;;;;10.23;9.33;;;11.00;99.90;;;;;;5039012;28;20200;-77
2022/02/14 10:02:46;;;;;;;10.13;9.27;;;10.90;99.90;;;;;;5036936;28;20205;-77
2022/02/14 10:05:18;;;;;;;9.07;8.27;;;10.70;99.90;;;;;;5041943;28;20272;-77
2022/02/14 10:07:46;;;;;;;10.23;9.23;;;10.60;99.90;;;;;;5038429;28;20221;-76
2022/02/14 10:10:17;;;;;;;9.10;8.30;;;10.80;99.90;;;;;;5035270;28;20209;-77
2022/02/14 10:12:46;;;;;;;10.00;9.20;;;10.90;99.90;;;;;;5043680;28;20220;-76
2022/02/14 10:15:14;;;;;;;9.60;8.90;;;10.90;99.90;;;;;;5028521;28;20705;-77
2022/02/14 10:17:44;;;;;;;8.93;8.20;;;10.90;99.90;;;;;;5051372;23;20233;-75
2022/02/14 10:20:15;;;;;;;9.40;8.60;;;11.10;99.90;;;;;;5036191;28;20272;-74
2022/02/14 10:22:56;;;;;;;9.60;8.90;;;11.10;99.90;;;;;;5041728;28;20196;-75
2022/02/14 10:25:31;;;;;;;9.50;8.70;;;11.20;99.90;;;;;;5028593;28;20651;-76
2022/02/14 10:28:15;;;;;;;9.37;8.60;;;11.30;99.90;;;;;;5026483;28;20219;-76
2022/02/14 10:31:00;;;;;;;9.53;8.70;;;11.40;99.90;;;;;;5028344;28;20677;-76
2022/02/14 10:33:48;;;;;;;9.13;8.37;;;11.60;99.90;;;;;;5035529;28;20190;-76
2022/02/14 10:36:24;;;;;;;9.40;8.67;;;11.90;99.90;;;;;;5032902;28;20285;-74
2022/02/14 10:38:51;;;;;;;10.17;9.20;;;12.00;99.90;;;;;;5028893;28;20219;-74
2022/02/14 10:41:19;;;;;;;10.17;9.33;;;12.20;99.90;;;;;;5038719;28;20256;-74
2022/02/14 10:43:46;;;;;;;10.20;9.40;;;12.20;99.90;;;;;;5028618;28;20202;-74
2022/02/14 10:46:19;;;;;;;9.40;8.70;;;12.30;99.90;;;;;;5044025;28;20218;-75
2022/02/14 10:48:46;;;;;;;9.67;8.90;;;12.30;99.90;;;;;;5034315;28;20710;-74
2022/02/14 10:51:18;;;;;;;10.03;9.13;;;12.30;99.90;;;;;;5032715;28;20253;-74
2022/02/14 10:53:48;;;;;;;10.00;9.20;;;12.40;99.90;;;;;;5034554;28;20282;-74
2022/02/14 10:56:18;;;;;;;9.63;8.83;;;12.50;99.90;;;;;;5029867;28;20184;-74
2022/02/14 10:58:47;;;;;;;10.00;9.20;;;12.60;99.90;;;;;;5039713;28;20258;-74
2022/02/14 11:01:16;;;;;;;8.70;8.00;;;12.80;99.90;;;;;;5036892;28;20228;-74
2022/02/14 11:03:44;;;;;;;10.20;9.20;;;12.90;99.90;;;;;;5027910;28;20250;-75
2022/02/14 11:06:13;;;;;;;10.07;9.17;;;13.00;99.90;;;;;;5040310;28;20264;-74
2022/02/14 11:08:41;;;;;;;9.90;9.00;;;13.20;99.90;;;;;;5032179;28;20224;-75
2022/02/14 11:11:10;;;;;;;8.77;8.07;;;13.30;99.90;;;;;;5028421;28;20202;-75
2022/02/14 11:13:39;;;;;;;8.20;7.50;;;13.50;99.90;;;;;;5043302;28;20284;-74
2022/02/14 11:16:09;;;;;;;8.87;8.10;;;13.70;99.90;;;;;;5031746;28;20662;-74
2022/02/14 11:18:40;;;;;;;9.57;8.00;;;13.80;99.90;;;;;;5035680;28;20231;-74
2022/02/14 11:21:08;;;;;;;10.17;8.53;;;13.90;99.90;;;;;;5038039;28;20214;-74
2022/02/14 11:23:42;;;;;;;7.63;7.13;;;13.90;99.90;;;;;;5037446;28;20253;-74
2022/02/14 11:26:17;;;;;;;8.67;7.53;;;14.00;99.90;;;;;;5035000;28;20606;-75
2022/02/14 11:28:49;;;;;;;8.00;7.30;;;13.90;99.90;;;;;;5035840;28;20269;-74
2022/02/14 11:31:19;;;;;;;7.50;6.90;;;13.90;99.90;;;;;;5037114;28;20206;-74
2022/02/14 11:33:54;;;;;;;8.13;7.37;;;13.80;99.90;;;;;;5028449;28;20239;-74
2022/02/14 11:36:21;;;;;;;8.80;7.47;;;13.80;99.90;;;;;;5043992;28;20220;-74
2022/02/14 11:38:50;;;;;;;8.50;7.83;;;13.70;99.90;;;;;;5033856;28;20246;-77
2022/02/14 11:41:25;;;;;;;7.87;7.27;;;13.70;99.90;;;;;;5029332;28;20782;-76
2022/02/14 11:43:52;;;;;;;8.47;7.87;;;13.60;99.90;;;;;;5032885;28;20692;-77
2022/02/14 11:46:25;;;;;;;8.20;7.50;;;13.50;99.90;;;;;;5037425;28;20220;-77
2022/02/14 11:49:13;;;;;;;7.30;6.80;;;13.40;99.90;;;;;;5036777;28;20705;-77
2022/02/14 11:51:42;;;;;;;6.80;6.30;;;13.30;99.90;;;;;;5036692;28;20199;-76
2022/02/14 11:54:29;;;;;;;8.60;8.00;;;13.20;99.90;;;;;;5032179;28;20249;-75
2022/02/14 11:57:26;;;;;;;7.77;7.03;;;13.20;99.90;;;;;;5042013;28;20192;-76
2022/02/14 12:00:14;;;;;;;7.80;7.17;;;13.10;99.90;;;;;;5035864;28;20216;-75
2022/02/14 12:02:55;;;;;;;9.33;8.20;;;13.10;99.90;;;;;;5027619;28;20627;-74
2022/02/14 12:05:40;;;;;;;8.40;7.60;;;13.10;99.90;;;;;;5039176;28;20203;-75
2022/02/14 12:08:07;;;;;;;8.07;7.47;;;13.00;99.90;;;;;;5034033;28;20212;-76
2022/02/14 12:10:47;;;;;;;7.80;7.20;;;13.00;99.90;;;;;;5033150;28;20605;-75
2022/02/14 12:13:17;;;;;;;7.23;6.73;;;13.00;99.90;;;;;;5038499;28;20196;-74
2022/02/14 12:21:23;;;;;;;7.23;6.70;;;12.90;99.90;;;;;;5032117;28;20577;-75
2022/02/14 12:23:51;;;;;;;7.20;6.70;;;12.80;99.90;;;;;;5032702;28;20196;-75
2022/02/14 12:26:21;;;;;;;7.97;7.37;;;12.90;99.90;;;;;;5030252;28;20208;-75
2022/02/14 12:29:31;;;;;;;8.63;8.03;;;12.80;99.90;;;;;;5033708;28;20212;-75
2022/02/14 12:31:45;;;;;;;9.43;8.83;;;12.90;99.90;;;;;;5029056;28;20688;-75
2022/02/14 12:34:21;;;;;;;7.87;7.20;;;13.10;99.90;;;;;;5032762;28;20200;-75
2022/02/14 12:36:59;;;;;;;7.40;6.80;;;13.20;99.90;;;;;;5030883;28;20187;-75
2022/02/14 12:39:40;;;;;;;7.77;7.17;;;13.40;99.90;;;;;;5032756;28;20200;-75
2022/02/14 12:42:12;;;;;;;6.87;6.37;;;13.50;99.90;;;;;;5030396;28;20673;-75
2022/02/14 12:44:39;;;;;;;8.83;6.80;;;13.70;99.90;;;;;;5033680;28;20203;-75
2022/02/14 12:47:06;;;;;;;7.07;6.47;;;13.70;99.90;;;;;;5033401;28;20257;-75
2022/02/14 12:49:34;;;;;;;6.80;6.40;;;13.50;99.90;;;;;;5031134;28;20192;-76
2022/02/14 12:52:16;;;;;;;6.97;6.47;;;13.40;99.90;;;;;;5033054;28;20189;-75
2022/02/14 12:54:53;;;;;;;7.17;6.67;;;13.30;99.90;;;;;;5032555;28;20721;-75
2022/02/14 12:57:38;;;;;;;7.00;6.60;;;13.20;99.90;;;;;;5030491;28;20271;-75
2022/02/14 13:00:22;;;;;;;7.00;6.47;;;13.10;99.90;;;;;;5031897;28;20684;-74
2022/02/14 13:02:50;;;;;;;7.40;6.70;;;13.00;99.90;;;;;;5033245;28;20590;-75